Aérodrome :
LOGIN :

S'inscrire | Disclaimer

   EN    FR    IT 

 










Légende :    VFR   VFR Marginal   IFR   IFR Intensif   IFR Très Intensif
Visi : 
Plafond : 
>= 8 km
>= 3000ft
5 à 8 km
1000 à 3000 ft
1500m à 5 km
500 à 1000 ft
800 à 1500m
200 à 500 ft
< 800m
< 200 ft
Symboles :   Orages  Brouillard  Fortes neiges  Fortes précipitations  Vent > 20 kt
SIGMETs :   Divers  Orages  Givrage  Turbulence  Onde Orograph.  Cendres Volcan.







- Altitude de l'aérodrome : 13 ft
- Code IATA : CAG


LIEE - Cagliari Elmas

DERNIER METAR :
  • 260350Z 14011KT 9999 BKN020 17/14 Q1009

METARs EXPIRÉS :
  • 260320Z 13012KT 9999 BKN020 17/15 Q1009
  • 260250Z 13012KT 9999 BKN020 17/15 Q1010
  • 260220Z 12012KT 9999 BKN020 17/15 Q1010
  • 260150Z 13014KT 9999 BKN020 17/14 Q1011
  • 260120Z 13013KT 9999 BKN020 17/15 Q1011

TAF TAF LIEE
Valide du 26 à 00h jusqu'au 27 à 00h UTC


252300Z 2600/2624 15013KT 9999 SCT030
Pas de NOTAMs connus pour ce terrain.



MET'MAP, la Météo Aéronautique d'un coup d'oeil ! - Copyright ORBIFLY Décembre 2007 - Disclaimer

ORBIFLY MET'MAP TEAM :

Programmation & Développement : Alexandra Zaïnal
Conception & Développement : Baudouin d'Aumeries
Co-Programmation & Développement : Marc-Olivier Méhu
Soutien technique & logistique : Manuel Goepfert

Contact : metmap@orbifly.com




SOURCES & CREDITS :

   NOAA